createdAt,value
2019-05-01T00:01:18.193Z,33.33
2019-05-01T00:04:23.276Z,33.93
2019-05-01T00:06:53.634Z,33.63
2019-05-01T00:09:20.967Z,33.47
2019-05-01T00:11:50.367Z,33.50
2019-05-01T00:14:17.754Z,33.53
2019-05-01T00:16:45.225Z,33.27
2019-05-01T00:19:12.568Z,34.67
2019-05-01T00:21:39.942Z,34.70
2019-05-01T00:24:07.515Z,35.70
2019-05-01T00:26:34.979Z,35.13
2019-05-01T00:29:02.379Z,36.10
2019-05-01T00:31:29.767Z,36.53
2019-05-01T00:33:57.126Z,36.23
2019-05-01T00:36:24.628Z,36.57
2019-05-01T00:38:52.018Z,36.97
2019-05-01T00:41:19.399Z,36.27
2019-05-01T00:43:46.697Z,37.20
2019-05-01T00:46:14.050Z,35.23
2019-05-01T00:48:41.385Z,36.27
2019-05-01T00:51:09.143Z,37.30
2019-05-01T00:53:36.492Z,37.73
2019-05-01T00:56:17.851Z,38.70
2019-05-01T00:59:03.135Z,38.17
2019-05-01T01:01:47.974Z,38.93
2019-05-01T01:04:17.359Z,40.03
2019-05-01T01:06:44.691Z,38.80
2019-05-01T01:09:12.404Z,40.43
2019-05-01T01:11:39.731Z,39.13
2019-05-01T01:14:07.443Z,39.30
2019-05-01T01:16:34.809Z,40.23
2019-05-01T01:19:02.171Z,40.23
2019-05-01T01:21:29.591Z,41.17
2019-05-01T01:23:57.261Z,38.90
2019-05-01T01:26:24.621Z,42.27
2019-05-01T01:28:52.075Z,40.37
2019-05-01T01:31:19.484Z,41.53
2019-05-01T01:33:46.731Z,42.20
2019-05-01T01:36:14.124Z,40.07
2019-05-01T01:38:41.365Z,41.00
2019-05-01T01:41:08.745Z,42.57
2019-05-01T01:43:44.699Z,42.13
2019-05-01T01:46:14.155Z,42.10
2019-05-01T01:48:41.507Z,42.60
2019-05-01T01:51:08.919Z,43.50
2019-05-01T01:53:36.411Z,44.37
2019-05-01T01:56:03.865Z,43.27
2019-05-01T01:58:31.329Z,43.67
2019-05-01T02:01:24.383Z,43.07
2019-05-01T02:03:56.677Z,42.03
2019-05-01T02:06:24.021Z,43.33
2019-05-01T02:08:56.548Z,43.37
2019-05-01T02:11:20.687Z,43.57
2019-05-01T02:13:48.133Z,44.10
2019-05-01T02:16:15.389Z,44.47
2019-05-01T02:18:42.901Z,45.07
2019-05-01T02:21:10.317Z,44.87
2019-05-01T02:23:37.645Z,45.23
2019-05-01T02:26:05.989Z,44.63
2019-05-01T02:28:48.275Z,45.40
2019-05-01T02:31:37.963Z,47.27
2019-05-01T02:34:05.704Z,43.83
2019-05-01T02:36:35.920Z,44.33
2019-05-01T02:39:07.384Z,45.33
2019-05-01T02:41:41.354Z,46.63
2019-05-01T02:44:11.721Z,44.17
2019-05-01T02:46:43.618Z,45.17
2019-05-01T02:49:16.655Z,44.33
2019-05-01T02:51:45.083Z,46.83
2019-05-01T02:54:15.495Z,44.20
2019-05-01T02:56:55.147Z,46.10
2019-05-01T02:59:25.363Z,46.47
2019-05-01T03:01:53.435Z,45.23
2019-05-01T03:04:21.070Z,45.93
2019-05-01T03:06:49.089Z,45.67
2019-05-01T03:09:17.851Z,44.10
2019-05-01T03:11:47.274Z,46.20
2019-05-01T03:14:18.679Z,45.97
2019-05-01T03:16:47.295Z,46.23
2019-05-01T03:19:24.807Z,45.50
2019-05-01T03:22:02.533Z,47.43
2019-05-01T03:24:29.986Z,45.03
2019-05-01T03:26:57.441Z,45.77
2019-05-01T03:29:25.038Z,45.87
2019-05-01T03:32:14.092Z,46.30
2019-05-01T03:34:22.005Z,46.83
2019-05-01T03:36:49.470Z,48.30
2019-05-01T03:39:17.131Z,46.53
2019-05-01T03:41:45.221Z,45.30
2019-05-01T03:44:12.784Z,46.40
2019-05-01T03:46:40.453Z,45.23
2019-05-01T03:49:08.167Z,45.10
2019-05-01T03:51:36.181Z,43.90
2019-05-01T03:54:03.750Z,44.00
2019-05-01T03:56:31.382Z,45.73
2019-05-01T03:58:59.063Z,44.90
2019-05-01T04:01:37.457Z,43.83
2019-05-01T04:04:17.370Z,44.07
2019-05-01T04:06:44.946Z,44.70
2019-05-01T04:09:12.392Z,45.70
2019-05-01T04:11:39.786Z,44.50
2019-05-01T04:14:07.398Z,44.67
2019-05-01T04:16:35.161Z,46.17
2019-05-01T04:19:03.566Z,45.13
2019-05-01T04:21:36.412Z,45.10
2019-05-01T04:24:03.739Z,44.77
2019-05-01T04:26:31.397Z,45.43
2019-05-01T04:29:05.466Z,43.50
2019-05-01T04:31:43.102Z,43.97
2019-05-01T04:34:22.369Z,44.67
2019-05-01T04:36:52.908Z,43.20
2019-05-01T04:39:20.652Z,43.83
2019-05-01T04:41:48.065Z,43.47
2019-05-01T04:44:16.125Z,44.27
2019-05-01T04:46:43.465Z,46.00
2019-05-01T04:49:11.227Z,44.07
2019-05-01T04:51:38.974Z,45.10
2019-05-01T04:54:06.840Z,46.50
2019-05-01T04:56:34.236Z,46.90
2019-05-01T04:59:02.129Z,46.47
2019-05-01T05:01:49.079Z,45.63
2019-05-01T05:04:16.454Z,44.93
2019-05-01T05:06:43.915Z,44.53
2019-05-01T05:09:11.407Z,46.80
2019-05-01T05:11:48.596Z,48.40
2019-05-01T05:14:20.690Z,47.53
2019-05-01T05:16:57.709Z,48.00
2019-05-01T05:19:25.042Z,49.07
2019-05-01T05:21:52.406Z,49.43
2019-05-01T05:24:19.846Z,50.60
2019-05-01T05:26:48.038Z,54.33
2019-05-01T05:29:17.876Z,53.97
2019-05-01T05:31:45.541Z,56.77
2019-05-01T05:34:18.075Z,62.37
2019-05-01T05:36:47.203Z,60.97
2019-05-01T05:39:28.178Z,60.93
2019-05-01T05:41:56.556Z,61.37
2019-05-01T05:44:23.861Z,61.13
2019-05-01T05:46:51.299Z,62.03
2019-05-01T05:49:19.058Z,62.10
2019-05-01T05:52:00.822Z,61.43
2019-05-01T05:54:47.819Z,59.90
2019-05-01T05:57:21.831Z,62.23
2019-05-01T05:59:53.055Z,58.83
2019-05-01T06:02:31.908Z,57.87
2019-05-01T06:05:24.042Z,59.47
2019-05-01T06:08:10.233Z,60.47
2019-05-01T06:10:58.377Z,56.23
2019-05-01T06:13:46.368Z,59.83
2019-05-01T06:16:20.679Z,62.50
2019-05-01T06:19:20.717Z,60.60
2019-05-01T06:22:23.519Z,60.63
2019-05-01T06:24:56.511Z,60.47
2019-05-01T06:27:23.986Z,60.40
2019-05-01T06:29:51.690Z,58.63
2019-05-01T06:32:19.027Z,58.17
2019-05-01T06:34:46.410Z,58.97
2019-05-01T06:37:13.873Z,61.87
2019-05-01T06:39:42.863Z,61.63
2019-05-01T06:42:15.054Z,62.20
2019-05-01T06:44:53.668Z,59.30
2019-05-01T06:47:43.149Z,60.63
2019-05-01T06:50:25.331Z,61.03
2019-05-01T06:52:52.979Z,64.67
2019-05-01T06:55:22.437Z,60.17
2019-05-01T06:57:50.069Z,63.13
2019-05-01T07:00:17.821Z,59.87
2019-05-01T07:02:47.746Z,61.03
2019-05-01T07:05:16.481Z,63.50
2019-05-01T07:07:48.008Z,62.63
2019-05-01T07:10:14.171Z,63.70
2019-05-01T07:12:41.489Z,64.13
2019-05-01T07:15:08.846Z,64.17
2019-05-01T07:17:36.147Z,62.23
2019-05-01T07:20:16.939Z,64.30
2019-05-01T07:22:45.617Z,63.03
2019-05-01T07:25:13.150Z,63.27
2019-05-01T07:27:40.493Z,62.60
2019-05-01T07:30:19.712Z,67.23
2019-05-01T07:32:46.985Z,62.70
2019-05-01T07:35:14.236Z,61.70
2019-05-01T07:37:41.578Z,63.87
2019-05-01T07:40:09.062Z,64.00
2019-05-01T07:42:39.391Z,64.17
2019-05-01T07:45:26.643Z,64.27
2019-05-01T07:47:54.465Z,62.17
2019-05-01T07:50:24.254Z,64.17
2019-05-01T07:52:52.223Z,63.60
2019-05-01T07:55:35.071Z,64.37
2019-05-01T07:58:03.705Z,65.73
2019-05-01T08:00:44.532Z,62.57
2019-05-01T08:03:11.869Z,66.17
2019-05-01T08:05:40.785Z,66.63
2019-05-01T08:08:09.641Z,65.37
2019-05-01T08:10:37.265Z,63.93
2019-05-01T08:13:04.637Z,66.97
2019-05-01T08:15:32.759Z,64.40
2019-05-01T08:18:24.137Z,64.33
2019-05-01T08:20:54.227Z,61.33
2019-05-01T08:23:21.626Z,64.57
2019-05-01T08:25:48.873Z,63.30
2019-05-01T08:28:21.893Z,60.70
2019-05-01T08:31:11.913Z,61.50
2019-05-01T08:33:52.527Z,58.90
2019-05-01T08:36:19.931Z,58.60
2019-05-01T08:38:47.305Z,60.20
2019-05-01T08:41:14.861Z,56.00
2019-05-01T08:43:42.281Z,56.97
2019-05-01T08:46:27.326Z,55.83
2019-05-01T08:48:59.072Z,54.47
2019-05-01T08:51:30.048Z,54.30
2019-05-01T08:53:57.854Z,56.63
2019-05-01T08:56:24.929Z,56.03
2019-05-01T08:58:52.417Z,55.17
2019-05-01T09:01:19.749Z,53.70
2019-05-01T09:03:49.804Z,55.00
2019-05-01T09:06:16.298Z,53.77
2019-05-01T09:08:43.697Z,50.43
2019-05-01T09:11:11.155Z,54.50
2019-05-01T09:13:38.479Z,51.97
2019-05-01T09:16:05.735Z,53.87
2019-05-01T09:18:33.079Z,51.60
2019-05-01T09:21:00.319Z,50.57
2019-05-01T09:23:27.709Z,51.67
2019-05-01T09:26:14.573Z,50.97
2019-05-01T09:28:41.726Z,50.93
2019-05-01T09:31:10.612Z,52.90
2019-05-01T09:33:38.029Z,50.60
2019-05-01T09:36:05.706Z,50.60
2019-05-01T09:38:33.128Z,53.00
2019-05-01T09:41:00.607Z,52.93
2019-05-01T09:43:30.932Z,50.20
2019-05-01T09:45:57.252Z,50.63
2019-05-01T09:48:24.660Z,54.80
2019-05-01T09:51:11.610Z,51.07
2019-05-01T09:53:58.228Z,51.60
2019-05-01T09:56:25.584Z,51.10
2019-05-01T09:58:52.958Z,51.47
2019-05-01T10:01:24.530Z,51.60
2019-05-01T10:03:54.406Z,50.07
2019-05-01T10:06:18.901Z,49.57
2019-05-01T10:08:46.260Z,50.50
2019-05-01T10:11:13.630Z,50.77
2019-05-01T10:13:40.944Z,54.33
2019-05-01T10:16:08.325Z,52.13
2019-05-01T10:18:35.770Z,51.27
2019-05-01T10:21:03.180Z,52.60
2019-05-01T10:23:30.600Z,59.08
2019-05-01T10:25:59.748Z,52.60
2019-05-01T10:28:38.859Z,58.10
2019-05-01T10:31:19.430Z,55.97
2019-05-01T10:33:47.154Z,55.17
2019-05-01T10:36:30.776Z,56.03
2019-05-01T10:38:58.028Z,57.23
2019-05-01T10:41:25.382Z,56.70
2019-05-01T10:43:52.770Z,58.40
2019-05-01T10:46:20.231Z,58.80
2019-05-01T10:48:47.610Z,59.93
2019-05-01T10:51:15.116Z,59.33
2019-05-01T10:53:43.300Z,61.10
2019-05-01T10:56:10.930Z,62.40
2019-05-01T10:58:38.338Z,63.27
2019-05-01T11:01:23.574Z,62.63
2019-05-01T11:03:51.320Z,63.63
2019-05-01T11:06:20.504Z,60.00
2019-05-01T11:08:48.036Z,62.60
2019-05-01T11:11:15.588Z,64.67
2019-05-01T11:13:43.020Z,64.87
2019-05-01T11:16:10.520Z,64.27
2019-05-01T11:18:38.018Z,63.70
2019-05-01T11:21:05.494Z,66.77
2019-05-01T11:23:32.802Z,66.93
2019-05-01T11:26:00.582Z,63.20
2019-05-01T11:28:27.958Z,66.00
2019-05-01T11:30:55.350Z,69.17
2019-05-01T11:33:40.712Z,68.80
2019-05-01T11:36:18.185Z,67.60
2019-05-01T11:38:53.522Z,67.47
2019-05-01T11:41:24.911Z,68.47
2019-05-01T11:43:52.483Z,64.47
2019-05-01T11:46:20.018Z,67.43
2019-05-01T11:48:47.481Z,64.93
2019-05-01T11:51:14.957Z,66.10
2019-05-01T11:53:42.407Z,65.13
2019-05-01T11:56:10.011Z,63.40
2019-05-01T11:58:37.399Z,63.03
2019-05-01T12:01:05.787Z,65.83
2019-05-01T12:03:33.184Z,63.70
2019-05-01T12:06:00.655Z,64.97
2019-05-01T12:08:28.067Z,63.47
2019-05-01T12:10:55.570Z,63.77
2019-05-01T12:13:22.892Z,59.60
2019-05-01T12:15:56.953Z,59.43
2019-05-01T12:18:24.353Z,62.00
2019-05-01T12:20:51.758Z,59.63
2019-05-01T12:23:19.158Z,62.03
2019-05-01T12:25:46.455Z,62.07
2019-05-01T12:28:14.045Z,64.83
2019-05-01T12:30:41.606Z,62.93
2019-05-01T12:33:44.538Z,63.47
2019-05-01T12:36:36.540Z,59.53
2019-05-01T12:38:54.227Z,69.67
2019-05-01T12:41:36.439Z,68.07
2019-05-01T12:44:04.565Z,96.00
2019-05-01T12:47:00.645Z,107.93
2019-05-01T12:49:28.095Z,61.07
2019-05-01T12:52:09.814Z,65.20
2019-05-01T12:54:35.669Z,68.03
2019-05-01T12:57:03.224Z,62.63
2019-05-01T12:59:30.585Z,72.30
2019-05-01T13:01:58.256Z,64.63
2019-05-01T13:04:25.661Z,62.73
2019-05-01T13:06:56.273Z,63.07
2019-05-01T13:09:23.680Z,61.53
2019-05-01T13:11:51.042Z,62.43
2019-05-01T13:14:18.440Z,61.90
2019-05-01T13:16:46.220Z,60.87
2019-05-01T13:19:13.657Z,64.27
2019-05-01T13:21:41.045Z,63.10
2019-05-01T13:24:08.449Z,65.20
2019-05-01T13:26:41.155Z,62.90
2019-05-01T13:29:20.921Z,65.83
2019-05-01T13:31:59.235Z,62.97
2019-05-01T13:34:26.621Z,62.53
2019-05-01T13:37:02.744Z,60.80
2019-05-01T13:39:23.335Z,62.97
2019-05-01T13:41:51.031Z,60.70
2019-05-01T13:44:20.261Z,63.53
2019-05-01T13:46:47.635Z,59.93
2019-05-01T13:49:15.037Z,62.97
2019-05-01T13:51:42.470Z,59.70
2019-05-01T13:54:10.357Z,61.27
2019-05-01T13:56:37.990Z,62.20
2019-05-01T13:59:07.887Z,61.90
2019-05-01T14:01:35.221Z,61.77
2019-05-01T14:04:02.704Z,60.40
2019-05-01T14:06:30.050Z,58.43
2019-05-01T14:08:57.435Z,58.47
2019-05-01T14:11:24.894Z,60.47
2019-05-01T14:13:52.275Z,59.87
2019-05-01T14:16:19.646Z,59.03
2019-05-01T14:18:47.016Z,60.10
2019-05-01T14:21:42.762Z,62.27
2019-05-01T14:24:35.603Z,60.27
2019-05-01T14:27:03.051Z,60.83
2019-05-01T14:29:30.808Z,58.57
2019-05-01T14:31:58.477Z,60.13
2019-05-01T14:34:25.808Z,57.07
2019-05-01T14:36:53.194Z,58.03
2019-05-01T14:39:20.547Z,57.97
2019-05-01T14:41:47.887Z,58.37
2019-05-01T14:44:15.305Z,54.60
2019-05-01T14:46:42.684Z,56.33
2019-05-01T14:49:10.052Z,56.33
2019-05-01T14:51:37.390Z,56.53
2019-05-01T14:54:05.049Z,54.97
2019-05-01T14:56:32.426Z,55.53
2019-05-01T14:58:59.802Z,54.17
2019-05-01T15:01:27.202Z,52.57
2019-05-01T15:03:54.613Z,54.87
2019-05-01T15:06:22.118Z,54.67
2019-05-01T15:08:49.509Z,51.93
2019-05-01T15:11:16.998Z,52.10
2019-05-01T15:13:59.628Z,51.67
2019-05-01T15:16:31.558Z,50.80
2019-05-01T15:19:13.196Z,49.70
2019-05-01T15:21:40.712Z,50.67
2019-05-01T15:24:07.989Z,48.03
2019-05-01T15:26:35.259Z,49.20
2019-05-01T15:29:02.642Z,47.13
2019-05-01T15:31:30.412Z,48.23
2019-05-01T15:33:57.815Z,50.47
2019-05-01T15:36:25.193Z,48.83
2019-05-01T15:38:52.585Z,48.50
2019-05-01T15:41:48.066Z,47.43
2019-05-01T15:44:19.421Z,46.63
2019-05-01T15:46:46.850Z,45.20
2019-05-01T15:49:14.239Z,42.77
2019-05-01T15:51:41.765Z,46.03
2019-05-01T15:54:09.162Z,44.07
2019-05-01T15:56:36.511Z,44.77
2019-05-01T15:59:03.903Z,44.47
2019-05-01T16:01:31.387Z,45.77
2019-05-01T16:03:58.723Z,44.43
2019-05-01T16:06:26.386Z,41.23
2019-05-01T16:08:53.767Z,42.63
2019-05-01T16:11:43.239Z,42.53
2019-05-01T16:14:10.666Z,41.63
2019-05-01T16:16:38.089Z,40.50
2019-05-01T16:19:05.422Z,42.73
2019-05-01T16:21:32.789Z,42.67
2019-05-01T16:24:00.192Z,42.13
2019-05-01T16:26:27.563Z,40.63
2019-05-01T16:28:54.877Z,41.93
2019-05-01T16:31:22.208Z,40.73
2019-05-01T16:33:49.577Z,51.60
2019-05-01T16:36:16.925Z,45.23
2019-05-01T16:38:55.335Z,43.93
2019-05-01T16:41:22.995Z,41.40
2019-05-01T16:43:50.725Z,43.47
2019-05-01T16:46:18.169Z,42.57
2019-05-01T16:48:45.538Z,42.70
2019-05-01T16:51:13.067Z,42.63
2019-05-01T16:53:40.413Z,41.93
2019-05-01T16:56:07.788Z,41.67
2019-05-01T16:58:35.528Z,42.77
2019-05-01T17:01:07.676Z,40.17
2019-05-01T17:03:46.549Z,41.57
2019-05-01T17:06:33.562Z,39.63
2019-05-01T17:09:12.760Z,41.13
2019-05-01T17:11:40.266Z,42.77
2019-05-01T17:14:08.402Z,41.00
2019-05-01T17:16:35.748Z,40.30
2019-05-01T17:19:03.273Z,41.67
2019-05-01T17:21:30.625Z,40.53
2019-05-01T17:23:58.088Z,42.33
2019-05-01T17:26:25.331Z,42.87
2019-05-01T17:28:52.879Z,41.87
2019-05-01T17:31:20.249Z,40.80
2019-05-01T17:33:50.798Z,42.60
2019-05-01T17:36:16.873Z,41.40
2019-05-01T17:38:49.767Z,42.33
2019-05-01T17:41:13.413Z,44.33
2019-05-01T17:43:44.633Z,42.33
2019-05-01T17:46:10.855Z,42.77
2019-05-01T17:48:39.385Z,42.20
2019-05-01T17:51:06.764Z,44.23
2019-05-01T17:53:34.151Z,43.67
2019-05-01T17:56:01.693Z,45.27
2019-05-01T17:58:29.145Z,44.23
2019-05-01T18:01:22.147Z,43.67
2019-05-01T18:04:20.918Z,43.37
2019-05-01T18:06:49.525Z,44.93
2019-05-01T18:09:17.290Z,44.80
2019-05-01T18:11:47.464Z,46.50
2019-05-01T18:14:13.886Z,45.30
2019-05-01T18:16:41.371Z,44.70
2019-05-01T18:19:10.002Z,45.27
2019-05-01T18:21:37.428Z,44.73
2019-05-01T18:24:24.698Z,45.10
2019-05-01T18:27:14.589Z,43.67
2019-05-01T18:29:46.732Z,46.87
2019-05-01T18:32:19.677Z,45.77
2019-05-01T18:34:47.096Z,46.77
2019-05-01T18:37:25.849Z,47.13
2019-05-01T18:39:53.251Z,47.10
2019-05-01T18:42:20.547Z,45.63
2019-05-01T18:44:48.907Z,47.17
2019-05-01T18:47:16.417Z,45.80
2019-05-01T18:49:43.872Z,46.73
2019-05-01T18:52:11.333Z,46.27
2019-05-01T18:54:38.689Z,46.63
2019-05-01T18:57:06.121Z,46.13
2019-05-01T18:59:33.557Z,47.13
2019-05-01T19:02:01.486Z,49.30
2019-05-01T19:04:29.315Z,49.30
2019-05-01T19:06:56.716Z,46.90
2019-05-01T19:09:30.095Z,47.83
2019-05-01T19:11:54.192Z,47.50
2019-05-01T19:14:23.504Z,48.57
2019-05-01T19:16:50.795Z,48.37
2019-05-01T19:19:18.201Z,49.17
2019-05-01T19:21:46.613Z,49.20
2019-05-01T19:24:15.351Z,47.50
2019-05-01T19:26:44.075Z,46.63
2019-05-01T19:29:11.533Z,48.10
2019-05-01T19:31:39.048Z,51.03
2019-05-01T19:34:06.705Z,50.63
2019-05-01T19:36:34.228Z,50.83
2019-05-01T19:39:01.768Z,50.63
2019-05-01T19:41:29.193Z,50.63
2019-05-01T19:43:56.537Z,49.67
2019-05-01T19:46:23.864Z,50.30
2019-05-01T19:48:52.716Z,50.97
2019-05-01T19:51:24.142Z,50.43
2019-05-01T19:53:51.583Z,51.73
2019-05-01T19:56:21.527Z,50.37
2019-05-01T19:58:48.037Z,50.73
2019-05-01T20:01:15.326Z,50.33
2019-05-01T20:03:42.706Z,48.93
2019-05-01T20:06:10.177Z,51.13
2019-05-01T20:08:37.737Z,50.87
2019-05-01T20:11:05.089Z,52.20
2019-05-01T20:13:32.499Z,49.03
2019-05-01T20:15:59.886Z,51.53
2019-05-01T20:18:27.360Z,51.47
2019-05-01T20:20:54.762Z,51.90
2019-05-01T20:23:26.143Z,53.37
2019-05-01T20:25:55.851Z,52.47
2019-05-01T20:28:22.437Z,52.80
2019-05-01T20:30:51.273Z,52.50
2019-05-01T20:33:18.631Z,53.70
2019-05-01T20:35:45.965Z,52.17
2019-05-01T20:38:13.328Z,53.10
2019-05-01T20:40:40.695Z,53.43
2019-05-01T20:43:08.054Z,52.27
2019-05-01T20:45:35.495Z,52.10
2019-05-01T20:48:03.074Z,53.20
2019-05-01T20:50:30.605Z,54.13
2019-05-01T20:52:57.963Z,53.30
2019-05-01T20:55:25.239Z,53.27
2019-05-01T20:57:54.878Z,53.93
2019-05-01T21:00:24.137Z,54.13
2019-05-01T21:02:51.477Z,54.70
2019-05-01T21:05:24.701Z,53.93
2019-05-01T21:08:23.419Z,55.37
2019-05-01T21:10:59.405Z,54.63
2019-05-01T21:13:26.818Z,56.53
2019-05-01T21:15:56.427Z,56.73
2019-05-01T21:18:25.963Z,57.90
2019-05-01T21:20:54.158Z,58.07
2019-05-01T21:23:23.325Z,57.07
2019-05-01T21:25:50.859Z,58.10
2019-05-01T21:28:18.243Z,54.17
2019-05-01T21:30:47.427Z,58.20
2019-05-01T21:33:15.057Z,57.73
2019-05-01T21:35:44.348Z,59.47
2019-05-01T21:38:11.601Z,56.03
2019-05-01T21:40:41.113Z,58.03
2019-05-01T21:43:08.333Z,54.67
2019-05-01T21:45:35.589Z,56.97
2019-05-01T21:48:03.283Z,56.07
2019-05-01T21:50:30.651Z,57.07
2019-05-01T21:52:58.216Z,58.30
2019-05-01T21:55:30.221Z,59.53
2019-05-01T21:57:56.389Z,57.97
2019-05-01T22:00:26.151Z,59.33
2019-05-01T22:02:53.607Z,58.93
2019-05-01T22:05:20.933Z,59.67
2019-05-01T22:07:48.293Z,59.57
2019-05-01T22:10:15.649Z,63.30
2019-05-01T22:12:43.969Z,63.63
2019-05-01T22:15:27.735Z,61.77
2019-05-01T22:18:18.907Z,62.07
2019-05-01T22:20:50.845Z,63.40
2019-05-01T22:23:21.880Z,62.63
2019-05-01T22:25:50.548Z,62.67
2019-05-01T22:28:30.128Z,66.03
2019-05-01T22:31:10.993Z,64.47
2019-05-01T22:33:38.932Z,61.67
2019-05-01T22:36:06.460Z,64.67
2019-05-01T22:38:33.848Z,61.60
2019-05-01T22:41:08.795Z,62.27
2019-05-01T22:43:36.128Z,60.07
2019-05-01T22:46:05.495Z,63.73
2019-05-01T22:48:32.848Z,63.83
2019-05-01T22:51:06.813Z,61.13
2019-05-01T22:53:34.164Z,61.87
2019-05-01T22:56:02.270Z,62.53
2019-05-01T22:58:30.794Z,63.43
2019-05-01T23:00:59.487Z,62.03
2019-05-01T23:03:46.343Z,61.87
2019-05-01T23:06:13.715Z,60.10
2019-05-01T23:08:41.055Z,61.07
2019-05-01T23:11:19.062Z,59.27
2019-05-01T23:13:38.139Z,61.50
2019-05-01T23:16:05.986Z,60.57
2019-05-01T23:18:33.345Z,64.40
2019-05-01T23:21:00.701Z,61.23
2019-05-01T23:23:28.187Z,60.43
2019-05-01T23:25:55.531Z,63.80
2019-05-01T23:28:22.983Z,60.20
2019-05-01T23:30:50.544Z,60.20
2019-05-01T23:33:17.907Z,60.37
2019-05-01T23:35:45.273Z,60.63
2019-05-01T23:38:12.668Z,59.40
2019-05-01T23:40:40.297Z,60.93
2019-05-01T23:43:07.577Z,62.20
2019-05-01T23:45:34.881Z,61.83
2019-05-01T23:48:02.081Z,58.63
2019-05-01T23:50:29.438Z,61.20
2019-05-01T23:52:56.664Z,58.97
2019-05-01T23:55:24.053Z,61.17
2019-05-01T23:57:51.487Z,61.67
